createdAt,value
2024-03-16T00:01:33.142Z,100646.03
2024-03-16T00:04:00.060Z,100652.91
2024-03-16T00:06:26.650Z,100655.53
2024-03-16T00:08:53.215Z,100648.69
2024-03-16T00:11:19.716Z,100648.69
2024-03-16T00:13:46.293Z,100646.16
2024-03-16T00:16:13.028Z,100649.63
2024-03-16T00:18:39.648Z,100654.91
2024-03-16T00:21:06.221Z,100655.03
2024-03-16T00:23:32.769Z,100646.66
2024-03-16T00:25:59.285Z,100649.41
2024-03-16T00:28:25.843Z,100642.72
2024-03-16T00:30:52.434Z,100641.19
2024-03-16T00:33:19.096Z,100643.13
2024-03-16T00:35:45.645Z,100644.19
2024-03-16T00:38:12.884Z,100644.38
2024-03-16T00:40:39.408Z,100638.59
2024-03-16T00:43:06.438Z,100648.22
2024-03-16T00:45:33.114Z,100641.47
2024-03-16T00:48:01.255Z,100643.34
2024-03-16T00:50:27.904Z,100641.72
2024-03-16T00:52:54.460Z,100640.06
2024-03-16T00:55:21.035Z,100641.13
2024-03-16T00:57:47.537Z,100641.19
2024-03-16T01:00:15.789Z,100641.28
2024-03-16T01:02:42.714Z,100646.34
2024-03-16T01:05:09.529Z,100641.22
2024-03-16T01:07:36.056Z,100641.19
2024-03-16T01:10:02.677Z,100640.28
2024-03-16T01:12:29.345Z,100636.75
2024-03-16T01:14:56.221Z,100631.50
2024-03-16T01:17:22.714Z,100631.38
2024-03-16T01:19:49.264Z,100633.78
2024-03-16T01:22:15.860Z,100631.00
2024-03-16T01:24:42.454Z,100636.78
2024-03-16T01:27:09.025Z,100634.94
2024-03-16T01:29:35.651Z,100632.19
2024-03-16T01:32:05.417Z,100631.16
2024-03-16T01:34:32.703Z,100639.50
2024-03-16T01:36:59.322Z,100633.38
2024-03-16T01:39:26.002Z,100639.16
2024-03-16T01:41:52.781Z,100632.09
2024-03-16T01:44:19.320Z,100631.94
2024-03-16T01:46:49.078Z,100633.50
2024-03-16T01:49:15.683Z,100630.78
2024-03-16T01:51:42.638Z,100637.47
2024-03-16T01:54:11.669Z,100638.25
2024-03-16T01:56:38.586Z,100643.25
2024-03-16T01:59:05.609Z,100637.25
2024-03-16T02:01:32.738Z,100637.09
2024-03-16T02:03:59.539Z,100642.16
2024-03-16T02:06:28.288Z,100635.31
2024-03-16T02:08:55.087Z,100642.88
2024-03-16T02:11:22.671Z,100647.88
2024-03-16T02:13:49.943Z,100651.22
2024-03-16T02:16:16.905Z,100644.28
2024-03-16T02:18:43.890Z,100647.63
2024-03-16T02:21:10.956Z,100645.84
2024-03-16T02:23:37.720Z,100647.50
2024-03-16T02:26:05.873Z,100655.13
2024-03-16T02:28:32.574Z,100652.50
2024-03-16T02:30:59.801Z,100656.81
2024-03-16T02:33:28.632Z,100657.63
2024-03-16T02:35:56.515Z,100656.81
2024-03-16T02:38:23.652Z,100657.72
2024-03-16T02:40:50.264Z,100661.13
2024-03-16T02:43:16.899Z,100657.78
2024-03-16T02:45:43.502Z,100656.38
2024-03-16T02:48:11.059Z,100660.09
2024-03-16T02:50:37.756Z,100663.81
2024-03-16T02:53:04.908Z,100669.34
2024-03-16T02:55:31.536Z,100663.63
2024-03-16T02:57:58.236Z,100665.53
2024-03-16T03:00:25.527Z,100658.03
2024-03-16T03:02:52.873Z,100653.84
2024-03-16T03:05:22.276Z,100650.56
2024-03-16T03:07:49.357Z,100652.28
2024-03-16T03:10:15.952Z,100643.84
2024-03-16T03:12:42.559Z,100645.63
2024-03-16T03:15:10.639Z,100655.06
2024-03-16T03:17:37.380Z,100661.03
2024-03-16T03:20:06.610Z,100660.19
2024-03-16T03:22:33.833Z,100668.81
2024-03-16T03:25:00.635Z,100659.41
2024-03-16T03:27:27.317Z,100653.50
2024-03-16T03:29:53.874Z,100664.63
2024-03-16T03:32:20.366Z,100665.53
2024-03-16T03:34:47.839Z,100663.00
2024-03-16T03:37:14.379Z,100669.03
2024-03-16T03:39:41.029Z,100669.97
2024-03-16T03:42:07.803Z,100671.81
2024-03-16T03:44:39.566Z,100671.81
2024-03-16T03:47:08.325Z,100670.03
2024-03-16T03:49:36.840Z,100671.81
2024-03-16T03:52:05.702Z,100670.97
2024-03-16T03:54:33.162Z,100669.28
2024-03-16T03:57:00.215Z,100677.03
2024-03-16T03:59:26.769Z,100670.31
2024-03-16T04:01:53.516Z,100672.97
2024-03-16T04:04:20.118Z,100675.59
2024-03-16T04:06:47.782Z,100673.94
2024-03-16T04:09:14.978Z,100673.03
2024-03-16T04:11:41.497Z,100674.78
2024-03-16T04:14:08.887Z,100667.97
2024-03-16T04:16:35.447Z,100676.56
2024-03-16T04:19:02.038Z,100675.72
2024-03-16T04:21:28.737Z,100672.38
2024-03-16T04:23:55.297Z,100673.28
2024-03-16T04:26:21.820Z,100671.72
2024-03-16T04:28:48.365Z,100677.13
2024-03-16T04:31:14.946Z,100683.31
2024-03-16T04:33:41.512Z,100682.72
2024-03-16T04:36:09.761Z,100682.97
2024-03-16T04:38:36.543Z,100687.50
2024-03-16T04:41:03.586Z,100686.06
2024-03-16T04:43:30.076Z,100688.75
2024-03-16T04:45:56.712Z,100683.91
2024-03-16T04:48:23.243Z,100683.31
2024-03-16T04:50:49.739Z,100684.31
2024-03-16T04:53:16.661Z,100698.13
2024-03-16T04:55:43.190Z,100695.72
2024-03-16T04:58:09.859Z,100703.47
2024-03-16T05:00:36.839Z,100695.91
2024-03-16T05:03:05.394Z,100695.09
2024-03-16T05:05:31.961Z,100702.91
2024-03-16T05:07:58.467Z,100700.47
2024-03-16T05:10:26.173Z,100701.44
2024-03-16T05:12:53.008Z,100710.91
2024-03-16T05:15:19.533Z,100707.56
2024-03-16T05:17:46.051Z,100705.13
2024-03-16T05:20:13.013Z,100701.81
2024-03-16T05:22:39.513Z,100701.03
2024-03-16T05:25:07.143Z,100707.06
2024-03-16T05:27:34.304Z,100701.94
2024-03-16T05:30:00.853Z,100706.31
2024-03-16T05:32:27.399Z,100708.88
2024-03-16T05:34:53.937Z,100705.44
2024-03-16T05:37:20.434Z,100713.13
2024-03-16T05:39:47.090Z,100713.13
2024-03-16T05:42:14.279Z,100713.00
2024-03-16T05:44:40.835Z,100712.91
2024-03-16T05:47:08.148Z,100708.59
2024-03-16T05:49:35.179Z,100705.06
2024-03-16T05:52:01.944Z,100710.91
2024-03-16T05:54:32.431Z,100714.16
2024-03-16T05:56:59.131Z,100723.31
2024-03-16T05:59:25.827Z,100722.31
2024-03-16T06:01:53.172Z,100723.00
2024-03-16T06:04:21.080Z,100720.22
2024-03-16T06:06:48.097Z,100719.13
2024-03-16T06:09:14.734Z,100726.50
2024-03-16T06:11:41.790Z,100727.91
2024-03-16T06:14:11.101Z,100730.94
2024-03-16T06:16:39.006Z,100731.41
2024-03-16T06:19:06.204Z,100731.88
2024-03-16T06:21:32.936Z,100734.72
2024-03-16T06:23:59.538Z,100731.66
2024-03-16T06:26:29.174Z,100737.38
2024-03-16T06:28:57.406Z,100731.97
2024-03-16T06:31:33.389Z,100739.38
2024-03-16T06:34:00.279Z,100745.25
2024-03-16T06:36:27.036Z,100746.03
2024-03-16T06:38:53.628Z,100751.09
2024-03-16T06:41:20.240Z,100749.31
2024-03-16T06:43:46.786Z,100753.47
2024-03-16T06:46:13.524Z,100757.72
2024-03-16T06:48:40.132Z,100760.22
2024-03-16T06:51:07.782Z,100762.69
2024-03-16T06:53:34.289Z,100762.53
2024-03-16T06:56:00.839Z,100762.50
2024-03-16T06:58:27.584Z,100775.28
2024-03-16T07:00:54.154Z,100770.88
2024-03-16T07:03:21.306Z,100774.16
2024-03-16T07:05:47.826Z,100781.72
2024-03-16T07:08:18.063Z,100782.50
2024-03-16T07:10:46.328Z,100781.44
2024-03-16T07:13:13.539Z,100790.59
2024-03-16T07:15:40.552Z,100792.16
2024-03-16T07:18:07.232Z,100799.72
2024-03-16T07:20:33.953Z,100793.53
2024-03-16T07:23:00.452Z,100798.50
2024-03-16T07:25:27.049Z,100801.81
2024-03-16T07:27:53.994Z,100802.47
2024-03-16T07:30:20.955Z,100803.13
2024-03-16T07:32:48.729Z,100801.25
2024-03-16T07:35:15.302Z,100802.84
2024-03-16T07:37:41.813Z,100801.06
2024-03-16T07:40:14.518Z,100807.75
2024-03-16T07:42:42.824Z,100798.97
2024-03-16T07:45:09.697Z,100798.03
2024-03-16T07:47:36.346Z,100809.09
2024-03-16T07:50:04.405Z,100804.72
2024-03-16T07:52:30.925Z,100808.91
2024-03-16T07:54:57.545Z,100807.97
2024-03-16T07:57:25.398Z,100801.81
2024-03-16T07:59:51.973Z,100806.81
2024-03-16T08:02:20.868Z,100810.09
2024-03-16T08:04:48.147Z,100807.25
2024-03-16T08:07:14.962Z,100803.56
2024-03-16T08:09:41.565Z,100810.19
2024-03-16T08:12:08.777Z,100804.84
2024-03-16T08:14:37.984Z,100810.56
2024-03-16T08:17:04.933Z,100813.69
2024-03-16T08:19:32.548Z,100805.19
2024-03-16T08:21:59.064Z,100815.66
2024-03-16T08:24:25.589Z,100820.03
2024-03-16T08:26:53.043Z,100817.69
2024-03-16T08:29:19.680Z,100812.69
2024-03-16T08:31:46.194Z,100816.13
2024-03-16T08:34:13.567Z,100813.41
2024-03-16T08:36:41.832Z,100809.88
2024-03-16T08:39:09.097Z,100813.91
2024-03-16T08:41:37.540Z,100816.91
2024-03-16T08:44:05.553Z,100815.50
2024-03-16T08:46:32.849Z,100816.66
2024-03-16T08:48:59.977Z,100811.84
2024-03-16T08:51:26.778Z,100810.00
2024-03-16T08:53:54.643Z,100816.50
2024-03-16T08:56:21.382Z,100828.03
2024-03-16T08:58:48.017Z,100826.31
2024-03-16T09:01:14.713Z,100825.69
2024-03-16T09:03:41.399Z,100828.09
2024-03-16T09:06:08.775Z,100830.84
2024-03-16T09:08:35.501Z,100827.09
2024-03-16T09:11:02.078Z,100830.97
2024-03-16T09:13:30.790Z,100834.88
2024-03-16T09:15:57.795Z,100831.97
2024-03-16T09:18:25.300Z,100829.03
2024-03-16T09:20:51.920Z,100827.25
2024-03-16T09:23:18.484Z,100824.69
2024-03-16T09:25:47.844Z,100830.28
2024-03-16T09:28:15.160Z,100818.50
2024-03-16T09:30:46.282Z,100827.00
2024-03-16T09:33:13.156Z,100829.94
2024-03-16T09:35:43.257Z,100825.19
2024-03-16T09:38:11.146Z,100842.47
2024-03-16T09:40:44.034Z,100842.28
